Time;durP1;ratioP1;P1;durP2;ratioP2;P2;SDS_P1;SDS_P2;PMS_P1;PMS_P2;Temp;Humidity;BMP_temperature;BMP_pressure;BME280_temperature;BME280_humidity;BME280_pressure;Samples;Min_cycle;Max_cycle;Signal;HPM_P1;HPM_P2
2023/12/04 00:01:22;;;;;;;926.58;848.53;;;0.50;99.90;;;;;;4969170;28;20030;-89
2023/12/04 00:03:48;;;;;;;795.80;736.00;;;0.50;99.90;;;;;;4962942;28;20042;-89
2023/12/04 00:06:14;;;;;;;873.45;802.70;;;0.60;99.90;;;;;;4979557;28;20121;-89
2023/12/04 00:08:40;;;;;;;884.38;811.80;;;0.50;99.90;;;;;;4984009;28;20065;-89
2023/12/04 00:11:07;;;;;;;853.13;786.88;;;0.40;99.90;;;;;;4995418;28;20056;-89
2023/12/04 00:13:33;;;;;;;832.55;767.95;;;0.60;99.90;;;;;;4956150;28;20057;-89
2023/12/04 00:15:59;;;;;;;896.10;822.63;;;1.40;99.90;;;;;;4982502;28;20042;-89
2023/12/04 00:18:25;;;;;;;789.72;729.30;;;0.50;99.90;;;;;;4973184;28;20045;-89
2023/12/04 00:20:51;;;;;;;887.30;816.55;;;1.60;99.90;;;;;;4953057;28;20038;-89
2023/12/04 00:23:17;;;;;;;901.55;828.38;;;0.50;99.90;;;;;;4963374;28;20391;-89
2023/12/04 00:25:42;;;;;;;894.20;821.83;;;0.50;99.90;;;;;;4982797;28;20038;-89
2023/12/04 00:28:08;;;;;;;857.05;787.72;;;0.50;99.90;;;;;;4974426;28;20042;-89
2023/12/04 00:30:34;;;;;;;869.00;800.55;;;1.90;99.90;;;;;;4974665;28;20035;-89
2023/12/04 00:33:00;;;;;;;813.83;751.63;;;0.40;99.90;;;;;;4957199;28;20503;-90
2023/12/04 00:35:25;;;;;;;862.90;792.80;;;0.50;99.90;;;;;;4963010;28;20042;-89
2023/12/04 00:37:51;;;;;;;889.25;818.03;;;1.60;99.90;;;;;;4978781;28;20042;-90
2023/12/04 00:40:17;;;;;;;873.92;804.00;;;0.50;99.90;;;;;;4978232;28;20034;-89
2023/12/04 00:42:43;;;;;;;912.22;837.72;;;1.60;99.90;;;;;;4991137;28;20116;-90
2023/12/04 00:45:09;;;;;;;946.63;867.45;;;0.50;99.90;;;;;;4975040;28;20043;-90
2023/12/04 00:47:34;;;;;;;890.20;817.50;;;0.50;99.90;;;;;;4987073;28;20063;-90
2023/12/04 00:50:01;;;;;;;912.28;837.72;;;0.50;99.90;;;;;;4970628;28;20034;-90
2023/12/04 00:52:27;;;;;;;904.53;831.17;;;1.70;99.90;;;;;;4966346;28;20108;-91
2023/12/04 00:54:53;;;;;;;942.50;863.10;;;0.50;99.90;;;;;;4982227;28;20085;-90
2023/12/04 00:57:19;;;;;;;929.15;853.35;;;0.30;99.90;;;;;;5002831;28;20042;-90
2023/12/04 00:59:44;;;;;;;864.55;795.25;;;1.70;99.90;;;;;;4986565;28;20027;-90
2023/12/04 01:02:13;;;;;;;882.40;812.80;;;0.50;99.90;;;;;;4990467;28;20483;-91
2023/12/04 01:04:42;;;;;;;863.55;796.58;;;0.40;99.90;;;;;;4986394;28;20050;-91
2023/12/04 01:07:08;;;;;;;868.40;799.75;;;0.50;99.90;;;;;;4977585;28;20045;-91
2023/12/04 01:09:37;;;;;;;873.85;804.70;;;0.50;99.90;;;;;;4991549;28;20047;-91
2023/12/04 01:12:03;;;;;;;937.25;858.95;;;0.60;99.90;;;;;;4976649;28;20391;-91
2023/12/04 01:14:29;;;;;;;953.40;873.63;;;0.50;99.90;;;;;;4976238;28;20046;-91
2023/12/04 01:16:55;;;;;;;838.17;772.88;;;1.60;99.90;;;;;;4974705;28;20635;-91
2023/12/04 01:19:25;;;;;;;901.45;828.20;;;2.00;99.90;;;;;;4967679;28;20038;-91
2023/12/04 01:21:51;;;;;;;936.63;860.67;;;2.00;99.90;;;;;;4990965;28;20059;-91
2023/12/04 01:24:16;;;;;;;947.88;868.17;;;1.40;99.90;;;;;;4976326;28;20418;-91
2023/12/04 01:26:42;;;;;;;913.30;841.28;;;0.50;99.90;;;;;;4975109;28;20038;-91
2023/12/04 01:29:08;;;;;;;906.08;831.58;;;0.50;99.90;;;;;;4972637;28;20045;-91
2023/12/04 01:31:34;;;;;;;938.85;861.80;;;0.50;99.90;;;;;;4970057;28;20515;-91
2023/12/04 01:34:00;;;;;;;918.63;843.50;;;0.50;99.90;;;;;;4975376;28;20136;-91
2023/12/04 01:36:26;;;;;;;946.70;867.45;;;1.80;99.90;;;;;;4975937;28;20482;-91
2023/12/04 01:38:51;;;;;;;971.00;887.83;;;0.50;99.90;;;;;;4979137;28;20038;-91
2023/12/04 01:41:17;;;;;;;885.40;812.38;;;0.30;99.90;;;;;;4978957;28;20054;-91
2023/12/04 01:43:43;;;;;;;955.42;875.90;;;1.60;99.90;;;;;;4995866;28;20042;-90
2023/12/04 01:46:11;;;;;;;937.97;861.22;;;1.30;99.90;;;;;;4977845;28;20406;-91
2023/12/04 01:48:37;;;;;;;874.75;803.53;;;1.00;99.90;;;;;;4980865;28;20541;-90
2023/12/04 01:51:07;;;;;;;948.40;868.55;;;0.50;99.90;;;;;;4975724;28;20027;-90
2023/12/04 01:53:35;;;;;;;915.80;842.58;;;0.50;99.90;;;;;;4977102;28;20122;-90
2023/12/04 01:56:01;;;;;;;901.70;829.30;;;1.00;99.90;;;;;;4995145;28;20037;-90
2023/12/04 01:58:27;;;;;;;890.83;820.85;;;1.70;99.90;;;;;;4974409;28;20034;-90
2023/12/04 02:00:52;;;;;;;924.17;848.13;;;2.00;99.90;;;;;;4956299;29;20050;-90
2023/12/04 02:03:18;;;;;;;937.92;859.78;;;0.60;99.90;;;;;;4973714;28;20035;-90
2023/12/04 02:05:45;;;;;;;946.67;867.83;;;1.70;99.90;;;;;;4977736;28;20053;-90
2023/12/04 02:08:11;;;;;;;929.33;850.72;;;1.50;99.90;;;;;;4974967;28;20031;-90
2023/12/04 02:10:38;;;;;;;921.47;844.17;;;-0.30;99.90;;;;;;4979220;28;20047;-90
2023/12/04 02:13:04;;;;;;;907.45;831.53;;;0.50;99.90;;;;;;4980637;28;20038;-90
2023/12/04 02:15:30;;;;;;;936.83;859.55;;;1.90;99.90;;;;;;4979396;28;20100;-91
2023/12/04 02:17:55;;;;;;;944.88;864.95;;;2.00;99.90;;;;;;4965830;28;20037;-90
2023/12/04 02:20:36;;;;;;;952.83;872.90;;;1.00;99.90;;;;;;4984970;28;20050;-90
2023/12/04 02:23:02;;;;;;;850.53;783.40;;;2.00;99.90;;;;;;4963594;28;20037;-90
2023/12/04 02:25:32;;;;;;;964.72;881.95;;;0.60;99.90;;;;;;4973684;28;20074;-90
2023/12/04 02:28:05;;;;;;;919.35;843.33;;;0.50;99.90;;;;;;4985217;28;20030;-90
2023/12/04 02:30:32;;;;;;;874.03;805.53;;;0.60;99.90;;;;;;4974380;28;20066;-89
2023/12/04 02:32:59;;;;;;;917.08;842.75;;;0.50;99.90;;;;;;4983921;28;20108;-90
2023/12/04 02:35:29;;;;;;;887.13;814.75;;;1.40;99.90;;;;;;4973299;28;20038;-90
2023/12/04 02:37:58;;;;;;;872.72;802.40;;;1.60;99.90;;;;;;4979186;28;20042;-91
2023/12/04 02:40:24;;;;;;;832.47;766.95;;;0.60;99.90;;;;;;4979966;28;20057;-91
2023/12/04 02:42:50;;;;;;;941.03;861.92;;;0.60;99.90;;;;;;4980758;28;20076;-90
2023/12/04 02:45:15;;;;;;;920.53;845.03;;;1.80;99.90;;;;;;4977266;28;20038;-90
2023/12/04 02:47:41;;;;;;;945.45;866.92;;;1.40;99.90;;;;;;4984316;28;20034;-91
2023/12/04 02:50:07;;;;;;;896.40;823.13;;;0.60;99.90;;;;;;4979338;28;20044;-90
2023/12/04 02:52:33;;;;;;;910.95;837.05;;;0.50;99.90;;;;;;4975871;28;20042;-90
2023/12/04 02:54:59;;;;;;;928.40;852.78;;;0.20;99.90;;;;;;4973814;28;20117;-90
2023/12/04 02:57:24;;;;;;;899.78;827.67;;;0.60;99.90;;;;;;4983042;28;20046;-90
2023/12/04 02:59:50;;;;;;;918.70;844.22;;;0.60;99.90;;;;;;4984805;28;20061;-90
2023/12/04 03:02:16;;;;;;;876.00;804.72;;;0.60;99.90;;;;;;4984965;28;20034;-90
2023/12/04 03:04:42;;;;;;;928.67;852.38;;;0.00;99.90;;;;;;4980968;28;20197;-90
2023/12/04 03:07:07;;;;;;;893.40;820.05;;;0.60;99.90;;;;;;4979875;28;20042;-91
2023/12/04 03:09:33;;;;;;;858.75;789.22;;;1.90;99.90;;;;;;4960791;28;20051;-91
2023/12/04 03:11:59;;;;;;;950.03;870.60;;;0.60;99.90;;;;;;4953648;28;20042;-91
2023/12/04 03:14:25;;;;;;;904.22;829.50;;;0.50;99.90;;;;;;4956017;28;20038;-90
2023/12/04 03:16:50;;;;;;;927.65;851.28;;;1.30;99.90;;;;;;4956058;28;20047;-91
2023/12/04 03:19:16;;;;;;;901.15;828.08;;;2.10;99.90;;;;;;4963221;28;20049;-91
2023/12/04 03:21:42;;;;;;;881.55;811.63;;;0.80;99.90;;;;;;4950707;28;20053;-91
2023/12/04 03:24:08;;;;;;;861.33;792.53;;;2.20;99.90;;;;;;4946332;28;20046;-91
2023/12/04 03:26:34;;;;;;;822.40;758.72;;;0.60;99.90;;;;;;4964413;28;20076;-90
2023/12/04 03:29:00;;;;;;;893.15;822.15;;;1.70;99.90;;;;;;4956969;28;20050;-90
2023/12/04 03:31:26;;;;;;;913.85;839.67;;;1.80;99.90;;;;;;4938363;28;20125;-90
2023/12/04 03:33:52;;;;;;;871.03;801.15;;;0.50;99.90;;;;;;4940847;28;20039;-89
2023/12/04 03:36:17;;;;;;;797.88;737.17;;;1.60;99.90;;;;;;4946418;28;20055;-90
2023/12/04 03:38:46;;;;;;;839.00;770.67;;;2.40;99.90;;;;;;4961620;28;20049;-90
2023/12/04 03:41:16;;;;;;;903.42;829.50;;;1.60;99.90;;;;;;4953359;28;20442;-90
2023/12/04 03:43:42;;;;;;;848.38;783.67;;;1.00;99.90;;;;;;4956208;28;20042;-90
2023/12/04 03:46:08;;;;;;;938.78;857.47;;;2.00;99.90;;;;;;4955879;28;20058;-90
2023/12/04 03:48:37;;;;;;;929.20;853.55;;;1.80;99.90;;;;;;4952957;28;20038;-90
2023/12/04 03:51:06;;;;;;;937.15;860.17;;;0.70;99.90;;;;;;4978413;28;20030;-90
2023/12/04 03:53:33;;;;;;;901.00;828.75;;;0.70;99.90;;;;;;4961110;28;20035;-90
2023/12/04 03:55:59;;;;;;;875.83;805.25;;;0.70;99.90;;;;;;4957698;28;20046;-90
2023/12/04 03:58:25;;;;;;;875.65;807.45;;;0.70;99.90;;;;;;4957553;28;20109;-90
2023/12/04 04:00:50;;;;;;;900.22;827.88;;;0.70;99.90;;;;;;4956920;28;20098;-90
2023/12/04 04:03:18;;;;;;;900.67;829.05;;;-0.30;99.90;;;;;;4952754;28;20043;-90
2023/12/04 04:05:47;;;;;;;913.20;839.67;;;1.80;99.90;;;;;;4958464;28;20050;-90
2023/12/04 04:08:13;;;;;;;891.97;819.45;;;1.80;99.90;;;;;;4960143;28;20038;-89
2023/12/04 04:10:38;;;;;;;885.20;813.53;;;-0.30;99.90;;;;;;4995617;28;20430;-90
2023/12/04 04:13:05;;;;;;;901.67;829.03;;;0.70;99.90;;;;;;4982731;28;20090;-90
2023/12/04 04:15:32;;;;;;;885.25;816.20;;;0.70;99.90;;;;;;4981819;28;20065;-90
2023/12/04 04:17:57;;;;;;;883.15;812.38;;;0.70;99.90;;;;;;4979602;28;20101;-90
2023/12/04 04:20:23;;;;;;;873.33;803.75;;;0.70;99.90;;;;;;4958507;28;20043;-90
2023/12/04 04:22:49;;;;;;;826.60;761.90;;;1.80;99.90;;;;;;4967692;28;20096;-89
2023/12/04 04:25:16;;;;;;;838.90;775.00;;;0.70;99.90;;;;;;4975482;28;20039;-89
2023/12/04 04:27:42;;;;;;;873.38;803.90;;;0.70;99.90;;;;;;4970676;28;20098;-89
2023/12/04 04:30:08;;;;;;;854.03;786.08;;;2.20;99.90;;;;;;4963697;28;20077;-90
2023/12/04 04:32:34;;;;;;;902.00;829.20;;;0.80;99.90;;;;;;4959527;28;20050;-90
2023/12/04 04:34:59;;;;;;;867.70;800.20;;;2.30;99.90;;;;;;4974076;28;20034;-90
2023/12/04 04:37:25;;;;;;;888.00;818.03;;;1.00;99.90;;;;;;4960350;28;20042;-90
2023/12/04 04:39:51;;;;;;;897.10;824.63;;;1.90;99.90;;;;;;4975355;28;20043;-90
2023/12/04 04:42:17;;;;;;;899.40;827.22;;;0.70;99.90;;;;;;4991298;28;20113;-90
2023/12/04 04:44:43;;;;;;;845.17;779.17;;;2.00;99.90;;;;;;4982681;28;20077;-89
2023/12/04 04:47:08;;;;;;;859.08;792.40;;;0.80;99.90;;;;;;4972128;28;20038;-90
2023/12/04 04:49:34;;;;;;;880.38;811.60;;;0.70;99.90;;;;;;4976256;28;20042;-90
2023/12/04 04:52:00;;;;;;;853.28;787.13;;;1.50;99.90;;;;;;4966437;28;20462;-90
2023/12/04 04:54:25;;;;;;;875.03;805.75;;;0.70;99.90;;;;;;4981854;28;20043;-90
2023/12/04 04:56:54;;;;;;;800.95;739.95;;;0.70;99.90;;;;;;5020226;28;20054;-88
2023/12/04 04:59:21;;;;;;;801.08;739.53;;;0.80;99.90;;;;;;4989599;28;20042;-90
2023/12/04 05:01:49;;;;;;;794.60;733.80;;;1.30;99.90;;;;;;4976460;28;20154;-90
2023/12/04 05:04:15;;;;;;;824.50;760.90;;;1.50;99.90;;;;;;4985020;28;20029;-90
2023/12/04 05:06:41;;;;;;;807.20;742.92;;;1.70;99.90;;;;;;4974051;28;20091;-90
2023/12/04 05:09:07;;;;;;;826.88;762.63;;;1.80;99.90;;;;;;4970797;28;20072;-91
2023/12/04 05:11:32;;;;;;;798.08;737.70;;;1.70;99.90;;;;;;4971213;28;20046;-90
2023/12/04 05:13:58;;;;;;;866.97;798.60;;;0.40;99.90;;;;;;4975482;28;20041;-90
2023/12/04 05:16:24;;;;;;;820.88;756.58;;;1.10;99.90;;;;;;4976713;28;20042;-90
2023/12/04 05:18:49;;;;;;;785.08;724.92;;;0.60;99.90;;;;;;4974994;28;20042;-90
2023/12/04 05:21:15;;;;;;;809.67;746.63;;;0.60;99.90;;;;;;4975333;28;20100;-90
2023/12/04 05:23:41;;;;;;;813.45;751.00;;;1.90;99.90;;;;;;4978070;28;20321;-90
2023/12/04 05:26:07;;;;;;;818.65;754.25;;;0.10;99.90;;;;;;4962027;28;20042;-90
2023/12/04 05:28:34;;;;;;;843.78;778.50;;;0.60;99.90;;;;;;4997767;28;20034;-90
2023/12/04 05:31:00;;;;;;;894.25;822.20;;;0.90;99.90;;;;;;4984678;28;20048;-90
2023/12/04 05:33:26;;;;;;;891.72;819.13;;;1.50;99.90;;;;;;4998785;28;20081;-91
2023/12/04 05:35:52;;;;;;;900.78;829.33;;;1.90;99.90;;;;;;4996215;28;20034;-90
2023/12/04 05:38:18;;;;;;;857.45;789.67;;;1.90;99.90;;;;;;4975260;28;20122;-90
2023/12/04 05:40:44;;;;;;;792.78;731.72;;;2.30;99.90;;;;;;4978767;28;20065;-90
2023/12/04 05:43:10;;;;;;;852.78;786.13;;;1.70;99.90;;;;;;4961292;28;20066;-90
2023/12/04 05:45:36;;;;;;;857.80;790.17;;;-0.40;99.90;;;;;;4973394;28;20033;-90
2023/12/04 05:48:02;;;;;;;864.00;796.92;;;1.50;99.90;;;;;;4989594;28;20116;-90
2023/12/04 05:50:28;;;;;;;867.05;799.53;;;0.60;99.90;;;;;;4981787;28;20038;-90
2023/12/04 05:52:53;;;;;;;886.78;812.75;;;1.40;99.90;;;;;;4981346;28;20038;-90
2023/12/04 05:55:20;;;;;;;813.35;749.67;;;1.80;99.90;;;;;;4964992;28;20046;-90
2023/12/04 05:57:46;;;;;;;821.60;758.55;;;1.40;99.90;;;;;;4978572;28;20038;-90
2023/12/04 06:00:12;;;;;;;820.97;757.78;;;1.80;99.90;;;;;;4977932;28;20054;-89
2023/12/04 06:02:43;;;;;;;835.13;769.95;;;0.60;99.90;;;;;;4998048;28;20388;-90
2023/12/04 06:05:09;;;;;;;808.60;744.47;;;1.20;99.90;;;;;;4981382;28;20037;-89
2023/12/04 06:07:35;;;;;;;774.15;716.17;;;1.90;99.90;;;;;;4976945;28;20078;-90
2023/12/04 06:10:04;;;;;;;835.15;768.15;;;0.70;99.90;;;;;;4977982;28;20051;-90
2023/12/04 06:12:30;;;;;;;862.03;794.92;;;0.70;99.90;;;;;;4973281;28;20122;-90
2023/12/04 06:14:56;;;;;;;815.13;751.90;;;0.70;99.90;;;;;;4998536;28;20101;-90
2023/12/04 06:17:21;;;;;;;823.72;757.28;;;0.70;99.90;;;;;;4981286;28;20034;-90
2023/12/04 06:19:47;;;;;;;827.13;762.95;;;0.70;99.90;;;;;;4962203;28;20058;-90
2023/12/04 06:22:19;;;;;;;807.63;745.97;;;0.70;99.90;;;;;;4974466;28;20074;-90
2023/12/04 06:24:45;;;;;;;814.83;751.63;;;0.70;99.90;;;;;;4959624;28;20046;-90
2023/12/04 06:27:20;;;;;;;763.42;708.25;;;0.70;99.90;;;;;;4981348;28;20117;-90
2023/12/04 06:29:47;;;;;;;813.90;750.05;;;1.80;99.90;;;;;;4996469;28;20096;-90
2023/12/04 06:32:13;;;;;;;796.33;734.58;;;0.80;99.90;;;;;;4985170;28;20105;-89
2023/12/04 06:34:42;;;;;;;801.67;741.15;;;0.80;99.90;;;;;;4990881;28;20105;-89
2023/12/04 06:37:15;;;;;;;800.50;739.63;;;0.80;99.90;;;;;;4979737;28;20442;-90
2023/12/04 06:39:44;;;;;;;786.50;728.53;;;0.80;99.90;;;;;;4983446;28;20053;-90
2023/12/04 06:42:11;;;;;;;830.47;765.50;;;0.80;99.90;;;;;;4990813;28;20038;-90
2023/12/04 06:44:37;;;;;;;780.05;721.00;;;0.80;99.90;;;;;;4989439;28;20132;-90
2023/12/04 06:47:04;;;;;;;796.95;736.20;;;1.60;99.90;;;;;;4986422;28;20042;-89
2023/12/04 06:49:31;;;;;;;787.58;728.08;;;0.70;99.90;;;;;;4982991;28;20072;-90
2023/12/04 06:51:58;;;;;;;806.40;745.28;;;1.20;99.90;;;;;;4991259;28;20050;-90
2023/12/04 06:54:23;;;;;;;794.08;734.58;;;1.60;99.90;;;;;;4989240;28;20042;-90
2023/12/04 06:56:49;;;;;;;791.25;731.53;;;1.90;99.90;;;;;;5000278;28;20042;-90
2023/12/04 06:59:15;;;;;;;777.25;719.38;;;2.00;99.90;;;;;;4993550;28;20046;-90
2023/12/04 07:01:42;;;;;;;801.63;739.80;;;1.70;99.90;;;;;;4981815;28;20057;-89
2023/12/04 07:04:09;;;;;;;787.38;727.33;;;2.10;99.90;;;;;;4970806;28;20075;-90
2023/12/04 07:06:41;;;;;;;819.53;757.53;;;1.80;99.90;;;;;;4970639;28;20073;-90
2023/12/04 07:09:08;;;;;;;780.05;716.08;;;0.60;99.90;;;;;;4977133;28;20054;-90
2023/12/04 07:11:34;;;;;;;767.10;708.90;;;0.10;99.90;;;;;;4970988;28;20058;-88
2023/12/04 07:14:00;;;;;;;774.72;716.67;;;1.60;99.90;;;;;;4971656;28;20043;-90
2023/12/04 07:16:25;;;;;;;779.70;721.08;;;0.90;99.90;;;;;;5000980;28;20042;-90
2023/12/04 07:18:51;;;;;;;776.28;718.35;;;1.60;99.90;;;;;;4984791;28;20038;-89
2023/12/04 07:21:17;;;;;;;783.30;724.28;;;0.60;99.90;;;;;;4993461;28;20030;-90
2023/12/04 07:23:42;;;;;;;784.85;726.13;;;1.40;99.90;;;;;;4978530;28;20034;-89
2023/12/04 07:26:08;;;;;;;790.97;730.97;;;1.70;99.90;;;;;;4974198;28;20035;-90
2023/12/04 07:28:34;;;;;;;770.63;714.63;;;1.90;99.90;;;;;;5000987;28;20042;-90
2023/12/04 07:31:01;;;;;;;776.03;717.88;;;1.50;99.90;;;;;;4969963;28;20124;-90
2023/12/04 07:33:27;;;;;;;774.10;715.95;;;0.50;99.90;;;;;;4959452;28;20039;-90
2023/12/04 07:35:53;;;;;;;767.35;710.45;;;1.50;99.90;;;;;;4981001;28;20042;-89
2023/12/04 07:38:19;;;;;;;796.55;734.47;;;0.80;99.90;;;;;;4960229;28;20036;-89
2023/12/04 07:40:48;;;;;;;810.17;746.78;;;1.50;99.90;;;;;;4983442;28;20054;-89
2023/12/04 07:43:14;;;;;;;774.33;715.97;;;1.80;99.90;;;;;;4993414;28;20069;-89
2023/12/04 07:45:41;;;;;;;783.90;724.53;;;1.70;99.90;;;;;;4989989;28;20038;-89
2023/12/04 07:48:07;;;;;;;771.25;713.15;;;1.60;99.90;;;;;;4980457;28;20058;-89
2023/12/04 07:50:32;;;;;;;810.33;747.95;;;1.90;99.90;;;;;;4972611;28;20038;-90
2023/12/04 07:52:58;;;;;;;785.88;725.90;;;2.10;99.90;;;;;;4959818;28;20109;-89
2023/12/04 07:55:24;;;;;;;788.72;729.35;;;1.60;99.90;;;;;;4985189;28;20049;-89
2023/12/04 07:57:50;;;;;;;767.65;711.03;;;1.70;99.90;;;;;;4983887;28;20045;-90
2023/12/04 08:00:22;;;;;;;793.90;734.72;;;2.00;99.90;;;;;;4992414;28;20117;-89
2023/12/04 08:02:48;;;;;;;792.55;731.67;;;0.60;99.90;;;;;;4972780;28;20105;-89
2023/12/04 08:05:14;;;;;;;788.67;727.72;;;0.70;99.90;;;;;;4952094;28;20041;-89
2023/12/04 08:07:43;;;;;;;798.75;739.00;;;0.10;99.90;;;;;;4995688;28;20034;-89
2023/12/04 08:10:09;;;;;;;799.25;739.08;;;1.50;99.90;;;;;;4995427;28;20132;-88
2023/12/04 08:12:34;;;;;;;788.47;729.65;;;0.70;99.90;;;;;;4972450;28;20124;-89
2023/12/04 08:15:01;;;;;;;785.30;726.95;;;1.30;99.90;;;;;;4987352;28;20037;-89
2023/12/04 08:17:27;;;;;;;779.33;721.03;;;2.40;99.90;;;;;;4986599;28;20097;-89
2023/12/04 08:19:54;;;;;;;816.90;754.58;;;2.00;99.90;;;;;;4983835;28;20427;-89
2023/12/04 08:22:20;;;;;;;847.22;782.10;;;2.00;99.90;;;;;;4991047;28;20073;-89
2023/12/04 08:24:45;;;;;;;778.38;717.85;;;1.70;99.90;;;;;;5003056;28;20054;-88
2023/12/04 08:27:11;;;;;;;879.83;809.22;;;1.70;99.90;;;;;;4966675;28;20054;-89
2023/12/04 08:29:39;;;;;;;867.95;799.00;;;1.90;99.90;;;;;;4989059;28;20470;-89
2023/12/04 08:32:05;;;;;;;894.50;823.55;;;1.80;99.90;;;;;;4975960;28;20042;-89
2023/12/04 08:34:31;;;;;;;898.05;825.28;;;0.90;99.90;;;;;;4983236;28;20129;-88
2023/12/04 08:36:57;;;;;;;745.88;690.53;;;0.30;99.90;;;;;;4983871;28;20045;-89
2023/12/04 08:39:22;;;;;;;814.97;751.47;;;1.80;99.90;;;;;;4979843;28;20106;-89
2023/12/04 08:41:48;;;;;;;883.20;813.65;;;1.30;99.90;;;;;;4979914;28;20038;-89
2023/12/04 08:44:15;;;;;;;881.55;812.45;;;2.00;99.90;;;;;;4969265;28;20034;-89
2023/12/04 08:46:42;;;;;;;734.53;678.78;;;2.30;99.90;;;;;;4958422;28;20031;-89
2023/12/04 08:49:07;;;;;;;833.10;769.13;;;2.40;99.90;;;;;;4993322;28;20038;-88
2023/12/04 08:51:33;;;;;;;894.38;822.47;;;2.30;99.90;;;;;;4985690;28;20073;-88
2023/12/04 08:53:59;;;;;;;903.67;830.47;;;2.50;99.90;;;;;;4989048;28;20114;-88
2023/12/04 08:56:25;;;;;;;904.78;832.47;;;2.60;99.90;;;;;;4981008;28;20039;-89
2023/12/04 08:58:50;;;;;;;895.28;824.53;;;1.70;99.90;;;;;;4970720;28;20038;-89
2023/12/04 09:01:16;;;;;;;843.67;778.95;;;1.10;99.90;;;;;;4979171;28;20045;-89
2023/12/04 09:03:42;;;;;;;795.75;735.17;;;0.60;99.90;;;;;;4989093;28;20054;-89
2023/12/04 09:06:11;;;;;;;854.22;786.50;;;2.00;99.90;;;;;;5005065;28;20038;-88
2023/12/04 09:08:37;;;;;;;877.83;807.67;;;1.10;99.90;;;;;;4994295;28;20069;-89
2023/12/04 09:11:03;;;;;;;909.60;836.03;;;2.30;99.90;;;;;;5003085;28;20514;-89
2023/12/04 09:13:31;;;;;;;916.78;842.35;;;1.00;99.90;;;;;;4982520;28;20121;-89
2023/12/04 09:15:57;;;;;;;919.97;842.95;;;1.20;99.90;;;;;;4972116;28;20042;-89
2023/12/04 09:18:23;;;;;;;851.90;784.80;;;2.00;99.90;;;;;;4963156;28;20038;-89
2023/12/04 09:20:48;;;;;;;867.65;799.55;;;2.10;99.90;;;;;;4997360;28;20052;-89
2023/12/04 09:23:17;;;;;;;859.65;792.80;;;1.20;99.90;;;;;;4996487;28;20057;-89
2023/12/04 09:25:43;;;;;;;858.10;789.30;;;1.40;99.90;;;;;;4977912;28;20102;-89
2023/12/04 09:28:09;;;;;;;899.25;825.30;;;1.30;99.90;;;;;;4979930;28;20045;-89
2023/12/04 09:30:37;;;;;;;792.42;734.08;;;1.60;99.90;;;;;;4986805;28;20114;-89
2023/12/04 09:33:03;;;;;;;855.08;787.63;;;2.40;99.90;;;;;;4987337;28;20050;-89
2023/12/04 09:35:29;;;;;;;849.40;780.00;;;2.80;99.90;;;;;;4987177;28;20459;-90
2023/12/04 09:37:55;;;;;;;904.53;832.00;;;2.30;99.90;;;;;;4995388;28;20065;-90
2023/12/04 09:40:20;;;;;;;865.47;796.83;;;1.40;99.90;;;;;;4994624;28;20061;-90
2023/12/04 09:42:47;;;;;;;879.30;809.33;;;1.60;99.90;;;;;;4990080;28;20049;-90
2023/12/04 09:45:13;;;;;;;801.97;739.20;;;2.70;99.90;;;;;;4986587;28;20030;-90
2023/12/04 09:47:39;;;;;;;823.95;757.75;;;1.60;99.90;;;;;;4985825;28;20038;-90
2023/12/04 09:50:05;;;;;;;810.00;747.45;;;2.80;99.90;;;;;;4987120;28;20552;-90
2023/12/04 09:52:33;;;;;;;820.33;757.30;;;1.70;99.90;;;;;;4994989;28;20054;-89
2023/12/04 09:54:59;;;;;;;857.80;794.85;;;1.70;99.90;;;;;;4975557;28;20040;-90
2023/12/04 09:57:26;;;;;;;863.90;787.60;;;2.40;99.90;;;;;;4974716;28;20041;-90
2023/12/04 09:59:52;;;;;;;811.67;751.13;;;2.80;99.90;;;;;;4984410;28;20049;-90
2023/12/04 10:02:22;;;;;;;822.45;758.40;;;1.70;99.90;;;;;;4973345;28;20064;-90
2023/12/04 10:04:48;;;;;;;816.63;756.47;;;0.90;99.90;;;;;;4984566;28;20050;-90
2023/12/04 10:07:17;;;;;;;818.08;752.70;;;3.00;99.90;;;;;;4982540;28;20034;-90
2023/12/04 10:09:42;;;;;;;897.42;829.17;;;2.60;99.90;;;;;;4986746;28;20474;-90
2023/12/04 10:12:09;;;;;;;875.05;808.40;;;2.80;99.90;;;;;;4993960;28;20038;-89
2023/12/04 10:14:35;;;;;;;868.53;800.45;;;3.20;99.90;;;;;;4970027;28;20057;-90
2023/12/04 10:17:15;;;;;;;931.85;861.05;;;2.10;99.90;;;;;;4971380;28;20070;-90
2023/12/04 10:19:40;;;;;;;932.22;860.63;;;2.70;99.90;;;;;;4966543;28;20053;-90
2023/12/04 10:22:10;;;;;;;859.50;792.28;;;1.90;99.90;;;;;;4973535;28;20038;-90
2023/12/04 10:24:38;;;;;;;872.80;804.83;;;1.90;99.90;;;;;;4970669;28;20041;-90
2023/12/04 10:27:08;;;;;;;948.15;876.97;;;2.60;99.90;;;;;;4969651;28;20034;-90
2023/12/04 10:29:48;;;;;;;916.50;845.22;;;3.00;99.90;;;;;;4973533;28;20043;-90
2023/12/04 10:32:21;;;;;;;1026.72;942.75;;;1.40;99.90;;;;;;4970678;28;20039;-89
2023/12/04 10:34:47;;;;;;;965.40;887.05;;;2.50;99.90;;;;;;4958817;28;20067;-89
2023/12/04 10:37:16;;;;;;;1065.53;979.20;;;1.90;99.90;;;;;;4986922;28;20044;-89
2023/12/04 10:39:48;;;;;;;920.58;849.03;;;2.90;99.90;;;;;;4974040;28;20435;-90
2023/12/04 10:42:25;;;;;;;964.92;887.22;;;3.10;99.90;;;;;;5007714;28;20034;-89
2023/12/04 10:44:54;;;;;;;921.80;850.42;;;3.30;99.90;;;;;;4989909;28;20022;-89
2023/12/04 10:47:21;;;;;;;1080.03;983.13;;;3.20;99.90;;;;;;4993855;28;20052;-90
2023/12/04 10:49:52;;;;;;;1076.43;982.47;;;1.80;99.90;;;;;;4995767;28;20030;-89
2023/12/04 10:52:22;;;;;;;1114.03;999.90;;;1.90;99.90;;;;;;4995664;28;20218;-89
2023/12/04 10:54:48;;;;;;;1008.60;922.33;;;2.90;99.90;;;;;;4995223;28;20049;-89
2023/12/04 10:57:22;;;;;;;1002.22;919.75;;;1.90;99.90;;;;;;4980660;28;20046;-89
2023/12/04 10:59:51;;;;;;;1076.93;981.63;;;2.70;99.90;;;;;;4993460;28;20051;-89
2023/12/04 11:02:21;;;;;;;1023.15;938.85;;;1.90;99.90;;;;;;4975338;28;20045;-88
2023/12/04 11:04:54;;;;;;;876.28;807.00;;;3.00;99.90;;;;;;4971615;28;20062;-89
2023/12/04 11:07:23;;;;;;;963.25;887.00;;;3.10;99.90;;;;;;4981700;28;20078;-88
2023/12/04 11:09:50;;;;;;;1009.67;921.85;;;2.70;99.90;;;;;;4983639;28;20054;-88
2023/12/04 11:12:21;;;;;;;1102.32;997.50;;;1.00;99.90;;;;;;4969857;28;20053;-89
2023/12/04 11:14:53;;;;;;;1008.50;922.08;;;2.90;99.90;;;;;;4969837;28;20062;-88
2023/12/04 11:17:20;;;;;;;1071.78;972.10;;;3.40;99.90;;;;;;4965320;28;20038;-88
2023/12/04 11:19:55;;;;;;;1115.90;998.83;;;2.10;99.90;;;;;;4965534;28;20042;-88
2023/12/04 11:22:21;;;;;;;1055.53;962.03;;;3.00;99.90;;;;;;4987812;28;20103;-88
2023/12/04 11:24:51;;;;;;;1091.82;989.33;;;3.50;99.90;;;;;;4968155;28;20038;-87
2023/12/04 11:27:20;;;;;;;1150.78;999.90;;;2.30;99.90;;;;;;4960280;28;20038;-88
2023/12/04 11:29:48;;;;;;;1067.82;968.75;;;1.70;99.90;;;;;;4972604;28;20071;-87
2023/12/04 11:32:17;;;;;;;1021.10;930.92;;;2.60;99.90;;;;;;4971045;28;20070;-87
2023/12/04 11:34:58;;;;;;;1119.20;999.70;;;3.70;99.90;;;;;;4963543;28;20050;-87
2023/12/04 11:37:24;;;;;;;1095.75;992.13;;;3.60;99.90;;;;;;4996620;28;20041;-87
2023/12/04 11:39:51;;;;;;;1094.05;988.67;;;3.90;99.90;;;;;;4990606;28;20038;-87
2023/12/04 11:42:23;;;;;;;1070.82;969.45;;;3.20;99.90;;;;;;4982929;28;20050;-87
2023/12/04 11:44:49;;;;;;;1074.60;973.88;;;2.50;99.90;;;;;;4955240;28;20070;-87
2023/12/04 11:47:15;;;;;;;1042.25;948.90;;;3.60;99.90;;;;;;4970135;28;20120;-87
2023/12/04 11:49:41;;;;;;;1050.63;952.33;;;2.50;99.90;;;;;;4961465;28;20077;-87
2023/12/04 11:52:09;;;;;;;1102.13;994.28;;;2.50;99.90;;;;;;4968660;28;20543;-87
2023/12/04 11:55:05;;;;;;;1088.57;984.92;;;3.50;99.90;;;;;;4971179;28;20042;-87
2023/12/04 11:57:40;;;;;;;1090.35;989.63;;;2.40;99.90;;;;;;4980355;28;20041;-87
2023/12/04 12:00:14;;;;;;;1107.82;995.25;;;2.40;99.90;;;;;;4983337;28;20038;-87
2023/12/04 12:02:41;;;;;;;1093.22;988.30;;;2.40;99.90;;;;;;4965290;28;20039;-87
2023/12/04 12:05:10;;;;;;;1061.35;961.70;;;3.20;99.90;;;;;;4978207;28;20172;-86
2023/12/04 12:07:36;;;;;;;1096.25;992.15;;;2.50;99.90;;;;;;4953603;28;20046;-87
2023/12/04 12:10:03;;;;;;;1030.60;938.53;;;2.50;99.90;;;;;;4975788;28;20429;-87
2023/12/04 12:12:30;;;;;;;1097.88;992.75;;;2.50;99.90;;;;;;5006532;28;20041;-87
2023/12/04 12:14:56;;;;;;;1098.60;994.22;;;2.50;99.90;;;;;;4982883;28;20034;-87